Time;durP1;ratioP1;P1;durP2;ratioP2;P2;SDS_P1;SDS_P2;PMS_P1;PMS_P2;Temp;Humidity;BMP_temperature;BMP_pressure;BME280_temperature;BME280_humidity;BME280_pressure;Samples;Min_cycle;Max_cycle;Signal;HPM_P1;HPM_P2
2023/02/22 00:00:21;;;;;;;42.72;11.15;;;;;;;13.85;50.98;101262.13;5057715;28;20031;-65
2023/02/22 00:02:48;;;;;;;44.90;12.43;;;;;;;13.89;51.31;101271.63;5074751;28;20044;-64
2023/02/22 00:05:15;;;;;;;51.92;13.52;;;;;;;13.90;51.12;101267.97;5056613;28;20039;-64
2023/02/22 00:07:43;;;;;;;40.25;11.93;;;;;;;13.91;50.77;101264.25;5056632;28;20053;-64
2023/02/22 00:10:12;;;;;;;58.92;10.93;;;;;;;13.92;51.54;101263.28;5056952;28;20090;-64
2023/02/22 00:12:42;;;;;;;46.80;13.10;;;;;;;13.96;50.91;101259.28;5057087;28;20037;-65
2023/02/22 00:15:08;;;;;;;40.90;11.63;;;;;;;14.01;51.20;101265.13;5041000;28;20111;-64
2023/02/22 00:17:34;;;;;;;43.72;13.35;;;;;;;14.05;51.46;101263.84;5040140;28;20447;-64
2023/02/22 00:20:00;;;;;;;37.88;11.73;;;;;;;14.09;52.21;101262.59;5039987;28;20097;-64
2023/02/22 00:22:25;;;;;;;55.15;11.80;;;;;;;14.10;51.34;101252.66;5039795;28;20536;-64
2023/02/22 00:24:50;;;;;;;34.70;11.13;;;;;;;14.13;50.98;101257.75;5056373;28;20511;-65
2023/02/22 00:27:16;;;;;;;39.13;11.10;;;;;;;14.15;50.43;101250.41;5056261;28;20030;-64
2023/02/22 00:29:45;;;;;;;45.55;12.50;;;;;;;14.14;50.60;101254.06;5056588;28;20028;-65
2023/02/22 00:32:11;;;;;;;41.97;11.25;;;;;;;14.12;51.50;101254.22;5039583;28;20029;-65
2023/02/22 00:34:36;;;;;;;38.63;11.68;;;;;;;14.11;50.86;101249.81;5039590;28;20028;-64
2023/02/22 00:37:03;;;;;;;38.90;10.93;;;;;;;14.12;50.90;101256.91;5073926;28;20412;-65
2023/02/22 00:39:29;;;;;;;35.33;9.27;;;;;;;14.14;51.48;101260.31;5056038;28;20099;-64
2023/02/22 00:41:55;;;;;;;47.05;12.07;;;;;;;14.15;50.42;101261.16;5056545;28;20025;-64
2023/02/22 00:44:20;;;;;;;45.35;11.88;;;;;;;14.14;52.13;101254.94;5055860;28;20128;-64
2023/02/22 00:46:46;;;;;;;34.92;11.85;;;;;;;14.10;52.24;101242.72;5055959;28;20047;-64
2023/02/22 00:49:11;;;;;;;41.47;10.85;;;;;;;14.08;51.36;101244.72;5055783;28;20529;-64
2023/02/22 00:51:37;;;;;;;48.03;11.63;;;;;;;14.08;50.88;101238.47;5039267;28;20032;-65
2023/02/22 00:54:03;;;;;;;35.42;9.57;;;;;;;14.03;50.99;101236.22;5056405;28;20025;-64
2023/02/22 00:56:32;;;;;;;36.15;10.38;;;;;;;14.02;51.81;101242.56;5039311;28;20050;-65
2023/02/22 00:58:59;;;;;;;39.95;10.23;;;;;;;14.01;50.83;101243.59;5055682;28;20115;-64
2023/02/22 01:01:25;;;;;;;45.35;9.38;;;;;;;13.98;51.46;101243.88;5055167;28;20033;-65
2023/02/22 01:03:51;;;;;;;37.20;9.73;;;;;;;13.98;51.95;101233.94;5071809;28;20035;-64
2023/02/22 01:06:16;;;;;;;43.25;10.00;;;;;;;13.94;52.08;101242.44;5072011;28;20111;-64
2023/02/22 01:08:46;;;;;;;27.50;9.43;;;;;;;13.95;50.48;101244.16;5073679;28;20045;-64
2023/02/22 01:11:14;;;;;;;40.72;10.00;;;;;;;13.94;51.20;101235.22;5073240;28;20036;-64
2023/02/22 01:13:40;;;;;;;32.20;9.55;;;;;;;13.98;52.23;101238.47;5055250;28;20028;-64
2023/02/22 01:16:07;;;;;;;29.40;9.43;;;;;;;13.97;51.59;101231.38;5072038;28;20111;-64
2023/02/22 01:18:34;;;;;;;36.00;11.38;;;;;;;14.00;51.46;101236.50;5055541;28;20021;-63
2023/02/22 01:21:00;;;;;;;40.95;10.85;;;;;;;14.02;50.80;101237.19;5039118;28;20029;-64
2023/02/22 01:23:26;;;;;;;63.08;10.02;;;;;;;14.02;51.15;101234.50;5073048;28;20040;-64
2023/02/22 01:25:51;;;;;;;38.05;9.70;;;;;;;14.01;50.61;101238.19;5055294;28;20032;-64
2023/02/22 01:28:17;;;;;;;42.90;9.60;;;;;;;13.97;50.90;101232.25;5055324;28;20036;-64
2023/02/22 01:30:42;;;;;;;30.02;9.02;;;;;;;13.97;51.32;101236.78;5055177;28;20047;-64
2023/02/22 01:33:08;;;;;;;47.17;9.65;;;;;;;13.95;51.37;101228.84;5055581;28;20476;-64
2023/02/22 01:35:35;;;;;;;41.88;10.27;;;;;;;13.94;50.84;101237.91;5038278;28;20206;-65
2023/02/22 01:38:01;;;;;;;42.92;11.02;;;;;;;13.95;50.96;101238.75;5055135;28;20039;-64
2023/02/22 01:40:30;;;;;;;40.55;9.45;;;;;;;13.92;52.26;101233.66;5038369;28;20115;-64
2023/02/22 01:42:58;;;;;;;40.60;9.93;;;;;;;13.90;51.61;101233.78;5055476;28;20487;-64
2023/02/22 01:45:29;;;;;;;30.52;10.35;;;;;;;13.90;52.27;101225.69;5071698;28;20033;-64
2023/02/22 01:48:15;;;;;;;38.10;9.38;;;;;;;13.89;52.08;101229.41;5055499;28;20025;-64
2023/02/22 01:50:51;;;;;;;34.28;8.85;;;;;;;13.89;51.08;101220.47;5054885;28;20412;-65
2023/02/22 01:53:17;;;;;;;41.40;9.85;;;;;;;13.89;50.51;101215.09;5055139;28;20066;-64
2023/02/22 01:55:43;;;;;;;37.53;9.57;;;;;;;13.87;51.59;101215.19;5038128;28;20036;-65
2023/02/22 01:58:09;;;;;;;55.08;9.40;;;;;;;13.88;50.98;101210.69;5054884;28;20523;-64
2023/02/22 02:00:35;;;;;;;36.17;9.10;;;;;;;13.89;52.26;101215.09;5072637;28;20037;-64
2023/02/22 02:03:07;;;;;;;43.38;9.77;;;;;;;13.86;50.90;101210.84;5038395;28;20032;-65
2023/02/22 02:05:34;;;;;;;29.50;9.55;;;;;;;13.86;51.72;101208.13;5038082;28;20036;-64
2023/02/22 02:08:07;;;;;;;29.45;9.20;;;;;;;13.86;52.06;101207.28;5054610;28;20064;-64
2023/02/22 02:10:33;;;;;;;17.75;7.93;;;;;;;13.85;50.48;101205.56;5071424;28;20090;-64
2023/02/22 02:13:02;;;;;;;24.70;8.18;;;;;;;13.82;51.23;101200.47;5055242;28;20055;-64
2023/02/22 02:15:31;;;;;;;23.70;8.40;;;;;;;13.79;51.17;101206.97;5058849;28;20028;-64
2023/02/22 02:18:00;;;;;;;22.73;8.82;;;;;;;13.82;51.23;101203.16;5058987;28;20108;-65
2023/02/22 02:20:31;;;;;;;31.35;8.10;;;;;;;13.83;50.77;101207.56;5058643;28;20056;-64
2023/02/22 02:23:12;;;;;;;28.88;8.25;;;;;;;13.84;50.63;101209.28;5041852;28;20036;-64
2023/02/22 02:26:05;;;;;;;35.67;8.43;;;;;;;13.86;51.91;101201.91;5076644;28;20029;-65
2023/02/22 02:28:36;;;;;;;;;;;;;;;13.85;51.71;101208.25;5076938;28;20039;-65
2023/02/22 02:31:20;;;;;;;33.75;8.60;;;;;;;13.85;52.10;101211.81;5058482;28;19916;-64
2023/02/22 02:34:17;;;;;;;52.55;10.38;;;;;;;13.86;50.72;101210.84;5076223;28;20517;-64
2023/02/22 02:37:08;;;;;;;45.78;9.23;;;;;;;13.85;50.98;101201.03;5073991;28;20032;-65
2023/02/22 02:39:38;;;;;;;39.22;10.50;;;;;;;13.87;50.44;101204.44;5074967;28;20028;-65
2023/02/22 02:42:07;;;;;;;29.77;8.48;;;;;;;13.88;51.80;101205.28;5075419;28;20032;-65
2023/02/22 02:44:54;;;;;;;31.85;9.57;;;;;;;13.88;51.22;101191.81;5058400;28;20040;-65
2023/02/22 02:47:24;;;;;;;40.92;8.80;;;;;;;13.88;51.43;101186.44;5075041;28;20223;-65
2023/02/22 02:49:54;;;;;;;45.45;9.75;;;;;;;13.87;51.04;101190.16;5058363;28;20033;-65
2023/02/22 02:52:22;;;;;;;28.30;9.18;;;;;;;13.85;51.76;101178.66;5058169;28;20408;-65
2023/02/22 02:54:48;;;;;;;41.55;9.05;;;;;;;13.82;51.54;101179.78;5041328;28;20028;-64
2023/02/22 02:57:13;;;;;;;40.92;8.95;;;;;;;13.79;51.27;101174.66;5057940;28;20028;-66
2023/02/22 02:59:39;;;;;;;50.17;7.38;;;;;;;13.80;51.62;101170.16;5058440;28;20089;-65
2023/02/22 03:02:22;;;;;;;35.30;8.23;;;;;;;13.76;51.97;101174.13;5057718;28;20038;-65
2023/02/22 03:05:14;;;;;;;42.30;7.97;;;;;;;13.66;50.62;101167.88;5057847;28;20543;-64
2023/02/22 03:07:45;;;;;;;35.00;8.35;;;;;;;13.70;50.82;101180.06;5068309;28;20116;-64
2023/02/22 03:10:49;;;;;;;34.03;9.98;;;;;;;13.70;52.21;101174.69;5075681;28;20048;-65
2023/02/22 03:13:14;;;;;;;56.55;9.52;;;;;;;13.66;51.37;101178.63;5077020;28;20469;-65
2023/02/22 03:15:39;;;;;;;33.92;9.40;;;;;;;13.64;51.54;101164.47;5077088;28;20049;-65
2023/02/22 03:18:08;;;;;;;35.45;8.95;;;;;;;13.63;50.76;101170.84;5077696;28;20389;-65
2023/02/22 03:20:50;;;;;;;50.67;9.38;;;;;;;13.58;51.66;101170.41;5057665;28;20044;-64
2023/02/22 03:23:26;;;;;;;46.42;9.32;;;;;;;13.57;51.85;101166.03;5057351;28;20377;-65
2023/02/22 03:25:56;;;;;;;53.92;9.55;;;;;;;13.56;51.89;101156.25;5056465;28;20097;-64
2023/02/22 03:28:25;;;;;;;26.35;9.32;;;;;;;13.55;51.11;101154.53;5057732;28;20029;-64
2023/02/22 03:31:09;;;;;;;38.50;8.77;;;;;;;13.55;51.78;101149.16;5074041;28;20060;-65
2023/02/22 03:33:35;;;;;;;37.30;9.10;;;;;;;13.56;52.35;101153.56;5057327;28;20052;-64
2023/02/22 03:36:08;;;;;;;50.45;9.23;;;;;;;13.54;52.31;101142.09;5057683;28;20614;-64
2023/02/22 03:38:36;;;;;;;49.97;9.77;;;;;;;13.55;52.14;101141.94;5057112;28;20081;-64
2023/02/22 03:41:03;;;;;;;22.23;8.13;;;;;;;13.56;51.74;101140.09;5057198;28;20028;-64
2023/02/22 03:43:37;;;;;;;41.40;9.02;;;;;;;13.56;50.93;101140.09;5057127;28;20037;-65
2023/02/22 03:46:04;;;;;;;31.00;7.15;;;;;;;13.52;51.26;101130.59;5057084;28;20036;-64
2023/02/22 03:48:53;;;;;;;35.92;7.85;;;;;;;13.55;52.18;101138.41;5056988;28;20117;-65
2023/02/22 03:51:20;;;;;;;65.65;8.65;;;;;;;13.53;50.76;101127.78;5056916;28;20047;-65
2023/02/22 03:53:46;;;;;;;40.40;8.15;;;;;;;13.51;51.09;101126.22;5075276;28;20055;-64
2023/02/22 03:56:19;;;;;;;20.33;7.53;;;;;;;13.49;52.12;101129.03;5074869;28;20037;-64
2023/02/22 03:58:48;;;;;;;32.80;8.77;;;;;;;13.49;51.01;101122.81;5040427;28;20029;-65
2023/02/22 04:01:14;;;;;;;28.23;7.75;;;;;;;13.47;50.77;101125.66;5040469;28;20304;-64
2023/02/22 04:03:41;;;;;;;16.40;6.88;;;;;;;13.43;51.67;101118.00;5073535;28;20463;-65
2023/02/22 04:06:06;;;;;;;47.22;7.28;;;;;;;13.40;51.15;101119.97;5040751;28;20059;-64
2023/02/22 04:08:32;;;;;;;12.13;6.03;;;;;;;13.38;51.03;101121.97;5073047;28;20045;-64
2023/02/22 04:10:57;;;;;;;26.50;7.65;;;;;;;13.36;50.40;101123.94;5056672;28;20115;-65
2023/02/22 04:13:23;;;;;;;23.08;6.22;;;;;;;13.33;51.15;101120.69;5056497;28;20119;-64
2023/02/22 04:15:48;;;;;;;24.83;7.00;;;;;;;13.30;50.30;101119.13;5056516;28;20029;-65
2023/02/22 04:18:13;;;;;;;31.90;6.68;;;;;;;13.26;51.33;101116.84;5055988;28;20377;-65
2023/02/22 04:20:39;;;;;;;24.98;6.40;;;;;;;13.23;51.14;101115.25;5074930;28;20030;-64
2023/02/22 04:23:04;;;;;;;20.23;7.15;;;;;;;13.19;51.26;101105.78;5039903;28;20452;-64
2023/02/22 04:25:30;;;;;;;24.23;7.05;;;;;;;13.24;50.36;101114.28;5039735;28;20039;-64
2023/02/22 04:27:56;;;;;;;30.05;6.43;;;;;;;13.21;50.74;101102.94;5056434;28;20029;-64
2023/02/22 04:30:22;;;;;;;23.40;6.35;;;;;;;13.23;51.36;101107.19;5056323;28;20017;-64
2023/02/22 04:32:47;;;;;;;18.45;6.38;;;;;;;13.20;50.92;101095.88;5057063;28;20025;-65
2023/02/22 04:35:12;;;;;;;24.02;5.68;;;;;;;13.14;51.99;101101.81;5074056;28;20029;-64
2023/02/22 04:37:38;;;;;;;16.08;6.60;;;;;;;13.19;50.53;101108.47;5074066;28;20111;-64
2023/02/22 04:40:07;;;;;;;31.85;6.72;;;;;;;13.18;51.48;101104.09;5055920;28;20075;-65
2023/02/22 04:42:34;;;;;;;14.48;5.28;;;;;;;13.16;50.90;101097.16;5039836;28;20017;-64
2023/02/22 04:44:59;;;;;;;12.95;5.82;;;;;;;13.14;51.00;101091.91;5074526;28;20035;-64
2023/02/22 04:47:24;;;;;;;18.23;6.18;;;;;;;13.13;50.63;101090.22;5056141;28;20037;-64
2023/02/22 04:49:50;;;;;;;10.07;4.90;;;;;;;13.12;50.45;101083.13;5033018;28;20112;-64
2023/02/22 04:52:16;;;;;;;11.20;5.90;;;;;;;13.12;50.78;101083.13;5035917;28;20413;-64
2023/02/22 04:54:41;;;;;;;24.70;6.30;;;;;;;13.11;51.14;101081.44;5036060;28;20404;-65
2023/02/22 04:57:07;;;;;;;12.52;5.43;;;;;;;13.07;50.57;101080.00;5052920;28;20155;-64
2023/02/22 04:59:32;;;;;;;15.10;4.70;;;;;;;13.06;51.18;101083.66;5035751;28;20041;-64
2023/02/22 05:01:59;;;;;;;14.18;5.07;;;;;;;13.03;50.32;101078.56;5035885;28;20116;-64
2023/02/22 05:04:25;;;;;;;14.57;5.22;;;;;;;13.01;51.11;101075.13;5036149;28;20037;-64
2023/02/22 05:06:50;;;;;;;14.43;4.30;;;;;;;13.00;50.17;101067.22;5035854;28;20033;-64
2023/02/22 05:09:15;;;;;;;9.82;4.25;;;;;;;12.98;50.54;101070.03;5035080;28;20053;-64
2023/02/22 05:11:41;;;;;;;13.45;5.18;;;;;;;12.92;51.19;101057.16;5052453;28;20409;-64
2023/02/22 05:14:06;;;;;;;16.83;5.10;;;;;;;12.92;51.62;101062.56;5035309;28;20519;-64
2023/02/22 05:16:32;;;;;;;18.20;5.18;;;;;;;12.89;50.84;101062.81;5035571;28;20082;-64
2023/02/22 05:18:57;;;;;;;36.75;5.40;;;;;;;12.88;50.67;101046.81;5035466;28;20410;-64
2023/02/22 05:21:22;;;;;;;18.65;5.43;;;;;;;12.84;50.67;101057.03;5053157;28;20463;-64
2023/02/22 05:23:48;;;;;;;12.25;5.40;;;;;;;12.81;50.02;101049.22;5035797;28;20082;-64
2023/02/22 05:26:13;;;;;;;18.55;6.60;;;;;;;12.78;51.56;101050.34;5035346;28;20040;-64
2023/02/22 05:28:39;;;;;;;9.70;4.85;;;;;;;12.76;51.25;101046.06;5035208;28;20040;-64
2023/02/22 05:31:06;;;;;;;41.65;5.53;;;;;;;12.72;50.32;101034.78;5053065;28;20044;-66
2023/02/22 05:33:31;;;;;;;18.83;5.22;;;;;;;12.71;50.51;101030.38;5035401;28;20045;-64
2023/02/22 05:35:56;;;;;;;17.65;5.20;;;;;;;12.72;50.12;101033.91;5053270;28;20056;-64
2023/02/22 05:38:22;;;;;;;62.08;8.63;;;;;;;12.70;50.75;101033.22;5035111;28;20412;-64
2023/02/22 05:40:48;;;;;;;17.17;6.03;;;;;;;12.72;50.93;101028.53;5035069;28;20037;-64
2023/02/22 05:43:14;;;;;;;37.00;5.65;;;;;;;12.70;50.63;101027.84;5052818;28;20086;-64
2023/02/22 05:45:40;;;;;;;21.58;5.93;;;;;;;12.70;50.79;101027.84;5035284;28;20098;-64
2023/02/22 05:48:05;;;;;;;33.03;5.80;;;;;;;12.69;50.44;101026.13;5052744;28;20481;-64
2023/02/22 05:50:31;;;;;;;25.33;5.95;;;;;;;12.67;51.08;101022.75;5018431;28;20029;-64
2023/02/22 05:52:57;;;;;;;35.33;6.05;;;;;;;12.64;50.12;101025.69;5035223;28;20040;-64
2023/02/22 05:55:23;;;;;;;21.13;6.07;;;;;;;12.62;50.80;101015.06;5034933;28;20086;-64
2023/02/22 05:57:49;;;;;;;21.83;5.90;;;;;;;12.61;51.44;101017.91;5034897;28;20028;-64
2023/02/22 06:00:27;;;;;;;20.67;5.35;;;;;;;12.57;50.17;101013.78;5035121;28;20116;-65
2023/02/22 06:03:04;;;;;;;29.45;5.88;;;;;;;12.52;50.35;101002.59;5053162;28;20033;-64
2023/02/22 06:05:30;;;;;;;17.55;5.13;;;;;;;12.49;50.29;101002.88;5034856;28;20112;-65
2023/02/22 06:07:56;;;;;;;21.25;5.32;;;;;;;12.47;50.57;100996.78;5035017;28;20632;-64
2023/02/22 06:10:21;;;;;;;14.10;4.78;;;;;;;12.45;50.92;101001.47;5051301;28;20045;-64
2023/02/22 06:12:48;;;;;;;17.77;4.70;;;;;;;12.42;50.33;101001.72;5034664;28;20048;-64
2023/02/22 06:15:14;;;;;;;31.08;5.13;;;;;;;12.41;50.07;100998.19;5034514;28;20036;-64
2023/02/22 06:17:40;;;;;;;23.55;6.57;;;;;;;12.41;51.14;101000.03;5034980;28;20107;-64
2023/02/22 06:20:08;;;;;;;20.83;5.07;;;;;;;12.40;51.31;101001.84;5034855;28;20493;-64
2023/02/22 06:22:33;;;;;;;20.67;5.00;;;;;;;12.36;50.21;100992.38;5034321;28;20041;-64
2023/02/22 06:25:02;;;;;;;15.02;4.85;;;;;;;12.35;50.45;100998.72;5034543;28;20099;-64
2023/02/22 06:27:30;;;;;;;30.75;5.68;;;;;;;12.33;50.03;100999.84;5051312;28;20503;-64
2023/02/22 06:29:55;;;;;;;17.10;5.25;;;;;;;12.32;50.49;100996.31;5034991;28;20047;-64
2023/02/22 06:32:21;;;;;;;15.55;7.65;;;;;;;12.31;51.17;100999.97;5042113;28;20487;-63
2023/02/22 06:34:47;;;;;;;15.95;8.18;;;;;;;12.28;50.18;100989.53;5021643;28;20090;-63
2023/02/22 06:37:12;;;;;;;20.58;9.20;;;;;;;12.26;50.16;100992.34;5054622;28;20029;-62
2023/02/22 06:39:38;;;;;;;17.17;8.38;;;;;;;12.30;50.25;100994.75;5037226;28;20115;-62
2023/02/22 06:42:03;;;;;;;16.85;8.90;;;;;;;12.27;50.98;100996.75;5038006;28;20029;-62
2023/02/22 06:44:29;;;;;;;17.52;8.70;;;;;;;12.29;50.57;100993.91;5037692;28;20039;-62
2023/02/22 06:46:55;;;;;;;20.52;8.10;;;;;;;12.30;50.99;100992.06;5037688;28;20557;-62
2023/02/22 06:49:20;;;;;;;17.13;7.90;;;;;;;12.30;49.85;100994.75;5054438;28;20047;-63
2023/02/22 06:51:46;;;;;;;13.15;6.10;;;;;;;12.29;49.89;100991.22;5054272;28;20043;-62
2023/02/22 06:54:11;;;;;;;13.95;6.30;;;;;;;12.26;49.71;100995.03;5054754;28;20118;-62
2023/02/22 06:56:37;;;;;;;12.88;6.07;;;;;;;12.24;50.52;100988.09;5054151;28;20055;-62
2023/02/22 06:59:02;;;;;;;8.25;4.53;;;;;;;12.26;50.57;100989.66;5037366;28;20032;-62
2023/02/22 07:01:28;;;;;;;10.55;5.53;;;;;;;12.26;51.25;100989.66;5040326;28;20044;-62
2023/02/22 07:03:53;;;;;;;9.82;5.03;;;;;;;12.27;50.68;100993.19;5057832;28;20033;-61
2023/02/22 07:06:19;;;;;;;11.93;4.07;;;;;;;12.24;50.77;100986.25;5041249;28;20033;-62
2023/02/22 07:08:44;;;;;;;7.47;3.33;;;;;;;12.28;50.60;100989.53;5058099;28;20060;-62
2023/02/22 07:11:10;;;;;;;8.88;3.78;;;;;;;12.31;50.68;100994.59;5054203;28;20063;-62
2023/02/22 07:13:35;;;;;;;7.90;4.40;;;;;;;12.33;50.90;100998.03;5033428;28;20033;-62
2023/02/22 07:16:01;;;;;;;10.40;4.95;;;;;;;12.36;49.79;100986.16;5055525;28;20047;-62
2023/02/22 07:18:26;;;;;;;11.23;5.05;;;;;;;12.37;51.14;100979.81;5037688;28;20457;-62
2023/02/22 07:20:51;;;;;;;9.32;4.30;;;;;;;12.39;50.56;100977.81;5005133;28;20025;-62
2023/02/22 07:23:17;;;;;;;6.70;3.60;;;;;;;12.43;50.43;100980.09;5037273;28;20137;-62
2023/02/22 07:25:43;;;;;;;10.48;4.40;;;;;;;12.48;50.14;100991.28;5037914;28;20075;-63
2023/02/22 07:28:09;;;;;;;7.82;4.43;;;;;;;12.51;50.31;100987.47;5037491;28;20037;-62
2023/02/22 07:30:35;;;;;;;8.38;4.57;;;;;;;12.56;50.00;100993.28;5033462;28;20413;-62
2023/02/22 07:33:05;;;;;;;9.73;5.00;;;;;;;12.56;50.67;100987.91;5054492;28;20025;-62
2023/02/22 07:35:35;;;;;;;7.32;4.22;;;;;;;12.63;50.11;100994.44;5020888;28;20033;-62
2023/02/22 07:38:01;;;;;;;10.75;4.65;;;;;;;12.63;50.21;100983.69;5021074;28;20408;-62
2023/02/22 07:40:27;;;;;;;7.78;3.63;;;;;;;12.71;49.39;100994.56;5038565;28;20037;-62
2023/02/22 07:42:58;;;;;;;11.50;4.60;;;;;;;12.77;49.24;100996.72;5022373;28;20501;-62
2023/02/22 07:45:29;;;;;;;7.35;4.05;;;;;;;12.81;49.70;101000.84;5057117;28;20061;-62
2023/02/22 07:47:54;;;;;;;6.32;3.65;;;;;;;12.86;49.47;100995.88;5037857;28;20024;-62
2023/02/22 07:50:21;;;;;;;8.73;4.97;;;;;;;12.93;49.11;100999.69;5040503;28;20420;-62
2023/02/22 07:52:47;;;;;;;7.35;4.30;;;;;;;13.00;49.29;100990.09;5020363;28;20041;-62
2023/02/22 07:55:15;;;;;;;10.73;4.85;;;;;;;13.09;49.77;100996.50;5020484;28;20507;-62
2023/02/22 07:57:42;;;;;;;8.18;4.45;;;;;;;13.15;49.19;100986.00;5037037;28;20393;-62
2023/02/22 08:00:08;;;;;;;11.05;4.13;;;;;;;13.24;48.96;100990.53;5037462;28;20538;-62
2023/02/22 08:02:34;;;;;;;10.40;4.78;;;;;;;13.29;50.10;100977.50;5036550;28;20040;-62
2023/02/22 08:04:59;;;;;;;8.20;3.80;;;;;;;13.39;49.05;100989.13;5036690;28;20037;-62
2023/02/22 08:07:24;;;;;;;7.88;4.18;;;;;;;13.51;49.80;100986.28;5054671;28;20060;-62
2023/02/22 08:09:50;;;;;;;9.27;4.43;;;;;;;13.64;49.66;100989.50;5036648;28;20503;-62
2023/02/22 08:12:15;;;;;;;9.52;3.85;;;;;;;13.76;49.58;100985.66;5036084;28;20053;-62
2023/02/22 08:14:40;;;;;;;8.70;4.70;;;;;;;13.87;48.62;100980.94;5020524;28;20040;-62
2023/02/22 08:17:06;;;;;;;13.27;4.80;;;;;;;13.97;49.18;100972.81;5036645;28;20447;-62
2023/02/22 08:19:31;;;;;;;10.55;4.82;;;;;;;14.09;49.13;100978.88;5053126;28;20067;-62
2023/02/22 08:21:57;;;;;;;8.70;4.07;;;;;;;14.18;49.04;100973.44;5036569;28;20022;-62
2023/02/22 08:24:22;;;;;;;11.98;4.80;;;;;;;14.28;48.70;100979.66;5054273;28;20537;-62
2023/02/22 08:26:47;;;;;;;7.68;4.43;;;;;;;14.34;49.31;100976.41;5003917;28;20025;-62
2023/02/22 08:29:13;;;;;;;8.57;4.10;;;;;;;14.44;49.37;100979.88;5019961;28;20561;-62
2023/02/22 08:31:39;;;;;;;9.52;4.45;;;;;;;14.53;48.25;100983.50;5020218;28;20112;-63
2023/02/22 08:34:04;;;;;;;11.18;4.60;;;;;;;14.64;48.26;100979.75;5019745;28;20040;-62
2023/02/22 08:36:31;;;;;;;8.88;3.97;;;;;;;14.73;48.82;100976.16;5036610;28;20033;-62
2023/02/22 08:38:57;;;;;;;9.23;4.10;;;;;;;14.82;48.70;100980.66;5053376;28;20033;-62
2023/02/22 08:41:22;;;;;;;9.70;4.70;;;;;;;14.94;49.17;100979.41;5019768;28;20127;-62
2023/02/22 08:43:48;;;;;;;9.23;4.03;;;;;;;15.03;48.99;100981.19;5036155;28;20047;-62
2023/02/22 08:46:15;;;;;;;7.07;4.05;;;;;;;15.17;48.73;100975.25;5054142;28;20037;-62
2023/02/22 08:48:49;;;;;;;9.13;4.65;;;;;;;15.29;48.90;100983.94;5019758;28;20032;-62
2023/02/22 08:51:14;;;;;;;10.07;5.55;;;;;;;15.42;47.74;100977.16;5036046;28;20036;-63
2023/02/22 08:53:40;;;;;;;9.10;4.55;;;;;;;15.58;48.51;100980.00;5054249;28;20025;-62
2023/02/22 08:56:05;;;;;;;9.57;4.88;;;;;;;15.80;48.06;100969.69;5053795;28;20028;-62
2023/02/22 08:58:31;;;;;;;10.25;4.20;;;;;;;15.92;47.34;100971.09;5035842;28;20041;-62
2023/02/22 09:00:56;;;;;;;9.48;4.80;;;;;;;16.02;48.60;100966.44;5035822;28;20551;-62
2023/02/22 09:03:22;;;;;;;7.70;4.25;;;;;;;16.12;48.00;100956.34;5019404;28;20025;-62
2023/02/22 09:05:47;;;;;;;9.18;4.60;;;;;;;16.33;46.93;100961.34;5054049;28;20480;-62
2023/02/22 09:08:14;;;;;;;6.90;3.75;;;;;;;16.49;48.44;100954.16;5019304;28;20033;-63
2023/02/22 09:10:40;;;;;;;6.57;3.85;;;;;;;16.64;47.25;100952.50;5035370;28;20061;-63
2023/02/22 09:13:05;;;;;;;9.18;4.28;;;;;;;16.74;47.56;100958.63;5019213;28;20063;-62
2023/02/22 09:15:34;;;;;;;6.45;4.47;;;;;;;16.81;47.42;100959.66;5019076;28;20117;-62
2023/02/22 09:18:00;;;;;;;6.85;3.55;;;;;;;16.91;47.27;100953.25;5036329;28;20024;-62
2023/02/22 09:20:26;;;;;;;11.93;4.50;;;;;;;17.03;46.94;100951.94;5053231;28;20044;-63
2023/02/22 09:22:52;;;;;;;6.43;3.88;;;;;;;17.18;47.48;100951.06;5018133;28;20029;-62
2023/02/22 09:25:21;;;;;;;12.60;4.60;;;;;;;17.47;46.35;100955.97;5035723;28;20032;-62
2023/02/22 09:27:48;;;;;;;6.63;4.80;;;;;;;17.66;46.48;100949.38;5036139;28;20029;-63
2023/02/22 09:30:22;;;;;;;7.45;3.90;;;;;;;17.83;46.50;100943.75;5035407;28;20052;-63
2023/02/22 09:32:49;;;;;;;11.45;4.78;;;;;;;18.03;46.57;100944.22;5019328;28;20052;-63
2023/02/22 09:35:14;;;;;;;10.35;4.65;;;;;;;18.21;46.03;100933.13;5053108;28;20075;-62
2023/02/22 09:37:43;;;;;;;9.75;4.32;;;;;;;18.47;45.86;100936.41;5018828;28;20520;-63
2023/02/22 09:40:16;;;;;;;6.93;4.13;;;;;;;18.78;45.70;100931.84;5035680;28;20032;-63
2023/02/22 09:42:49;;;;;;;14.18;5.30;;;;;;;19.43;44.73;100920.50;5018837;28;20028;-63
2023/02/22 09:45:24;;;;;;;10.68;4.28;;;;;;;20.08;43.47;100916.03;5035080;28;20078;-63
2023/02/22 09:47:58;;;;;;;5.43;3.25;;;;;;;20.07;43.72;100914.31;5035665;28;20473;-63
2023/02/22 09:50:28;;;;;;;9.60;4.65;;;;;;;20.18;44.01;100916.56;5035083;28;20505;-63
2023/02/22 09:52:58;;;;;;;10.32;4.65;;;;;;;20.36;44.14;100918.09;5052952;28;20028;-63
2023/02/22 09:55:41;;;;;;;11.05;3.47;;;;;;;20.49;44.24;100918.25;5052715;28;20025;-63
2023/02/22 09:58:16;;;;;;;10.65;3.90;;;;;;;20.60;43.73;100925.94;5034878;28;20509;-63
2023/02/22 10:00:42;;;;;;;6.07;3.35;;;;;;;20.76;43.88;100915.66;5034818;28;20037;-63
2023/02/22 10:03:17;;;;;;;8.48;4.72;;;;;;;20.93;43.39;100916.25;5035284;28;20032;-63
2023/02/22 10:05:56;;;;;;;7.38;4.20;;;;;;;21.13;42.76;100909.13;5034988;28;20048;-63
2023/02/22 10:08:28;;;;;;;8.88;3.80;;;;;;;21.28;43.76;100912.59;5034978;28;20086;-63
2023/02/22 10:11:19;;;;;;;6.32;3.95;;;;;;;21.34;43.13;100914.56;5018382;28;20574;-63
2023/02/22 10:13:54;;;;;;;6.60;4.03;;;;;;;21.52;42.74;100915.97;5038466;28;20033;-62
2023/02/22 10:16:35;;;;;;;7.05;4.10;;;;;;;21.61;42.76;100914.78;5036779;28;20033;-63
2023/02/22 10:19:10;;;;;;;7.40;3.70;;;;;;;21.68;42.88;100910.19;5018409;28;20037;-63
2023/02/22 10:21:52;;;;;;;10.43;4.00;;;;;;;21.91;42.36;100917.09;5034622;28;20037;-63
2023/02/22 10:24:31;;;;;;;7.70;4.40;;;;;;;22.18;42.98;100920.81;5034747;28;20033;-63
2023/02/22 10:26:57;;;;;;;8.77;4.25;;;;;;;22.48;42.55;100913.16;5018863;28;20128;-63
2023/02/22 10:29:31;;;;;;;8.20;4.63;;;;;;;22.75;41.68;100911.41;5034756;28;20033;-63
2023/02/22 10:31:59;;;;;;;7.90;4.43;;;;;;;22.85;41.14;100903.66;5034797;28;20117;-63
2023/02/22 10:34:27;;;;;;;6.18;3.83;;;;;;;22.96;41.95;100911.22;5053602;28;20116;-63
2023/02/22 10:37:21;;;;;;;8.75;4.15;;;;;;;23.03;41.38;100903.91;5022130;28;20029;-63
2023/02/22 10:39:47;;;;;;;7.47;4.38;;;;;;;23.17;41.27;100897.41;5038104;28;20063;-63
2023/02/22 10:42:13;;;;;;;12.85;4.97;;;;;;;23.33;40.50;100907.91;5038943;28;20060;-63
2023/02/22 10:44:38;;;;;;;9.95;4.57;;;;;;;23.58;41.05;100895.31;5056303;28;20037;-63
2023/02/22 10:47:10;;;;;;;6.22;4.38;;;;;;;23.86;40.46;100892.31;5038516;28;20036;-63
2023/02/22 10:49:43;;;;;;;8.77;5.10;;;;;;;23.95;40.28;100890.19;5021777;28;20037;-63
2023/02/22 10:52:29;;;;;;;8.00;4.93;;;;;;;23.98;40.18;100889.75;5038501;28;20094;-63
2023/02/22 10:54:57;;;;;;;10.20;4.60;;;;;;;23.85;40.52;100890.63;5022047;28;20033;-63
2023/02/22 10:57:33;;;;;;;11.43;4.95;;;;;;;23.49;40.85;100899.31;5038441;28;20029;-63
2023/02/22 11:00:14;;;;;;;8.65;4.47;;;;;;;23.30;41.24;100891.91;5038527;28;20424;-63
2023/02/22 11:03:08;;;;;;;7.72;4.20;;;;;;;23.11;40.35;100892.75;5021936;28;20041;-63
2023/02/22 11:05:37;;;;;;;8.95;4.43;;;;;;;22.88;41.04;100900.50;5038603;28;20037;-63
2023/02/22 11:08:17;;;;;;;7.65;4.22;;;;;;;22.79;40.63;100893.53;5037974;28;20064;-63
2023/02/22 11:10:43;;;;;;;7.88;4.40;;;;;;;22.86;41.21;100894.41;5037744;28;20033;-62
2023/02/22 11:13:17;;;;;;;8.23;4.65;;;;;;;22.95;40.41;100893.13;5037520;28;20041;-62
2023/02/22 11:15:44;;;;;;;9.73;4.60;;;;;;;23.08;40.35;100880.34;5037847;28;20094;-63
2023/02/22 11:18:23;;;;;;;16.83;4.72;;;;;;;23.41;39.71;100874.91;5038068;28;20032;-63
2023/02/22 11:20:58;;;;;;;7.28;4.95;;;;;;;23.69;40.03;100871.94;5021113;28;20563;-63
2023/02/22 11:23:23;;;;;;;10.82;5.22;;;;;;;23.96;39.17;100867.22;5021033;28;20036;-63
2023/02/22 11:25:50;;;;;;;10.70;5.18;;;;;;;24.13;39.14;100865.72;5020921;28;20033;-63